createdAt,value
2023-10-30T00:00:24.592Z,1.88
2023-10-30T00:02:51.413Z,1.25
2023-10-30T00:05:18.100Z,1.70
2023-10-30T00:07:44.860Z,0.88
2023-10-30T00:10:11.479Z,0.80
2023-10-30T00:12:38.148Z,1.10
2023-10-30T00:15:05.312Z,3.03
2023-10-30T00:17:32.092Z,2.08
2023-10-30T00:19:59.171Z,1.17
2023-10-30T00:22:26.067Z,1.50
2023-10-30T00:24:52.880Z,0.98
2023-10-30T00:27:19.567Z,0.95
2023-10-30T00:29:46.347Z,1.90
2023-10-30T00:32:13.028Z,1.90
2023-10-30T00:34:39.754Z,0.50
2023-10-30T00:37:06.486Z,1.05
2023-10-30T00:39:34.028Z,2.55
2023-10-30T00:42:00.808Z,1.83
2023-10-30T00:44:28.393Z,0.88
2023-10-30T00:46:55.049Z,1.15
2023-10-30T00:49:21.852Z,3.38
2023-10-30T00:51:48.652Z,2.88
2023-10-30T00:54:15.385Z,1.98
2023-10-30T00:56:42.238Z,2.88
2023-10-30T00:59:08.956Z,0.68
2023-10-30T01:01:35.713Z,1.55
2023-10-30T01:04:02.714Z,1.52
2023-10-30T01:06:29.550Z,5.25
2023-10-30T01:08:56.162Z,1.25
2023-10-30T01:11:23.023Z,1.35
2023-10-30T01:13:49.834Z,4.47
2023-10-30T01:16:17.125Z,3.63
2023-10-30T01:18:43.880Z,1.63
2023-10-30T01:21:11.384Z,1.20
2023-10-30T01:23:38.040Z,2.58
2023-10-30T01:26:05.539Z,3.17
2023-10-30T01:28:32.190Z,3.17
2023-10-30T01:30:58.838Z,1.77
2023-10-30T01:33:25.638Z,1.35
2023-10-30T01:35:52.504Z,2.90
2023-10-30T01:38:19.123Z,2.10
2023-10-30T01:40:50.144Z,1.63
2023-10-30T01:43:17.512Z,2.65
2023-10-30T01:45:44.108Z,7.40
2023-10-30T01:48:11.032Z,3.75
2023-10-30T01:50:38.672Z,2.60
2023-10-30T01:53:05.608Z,2.92
2023-10-30T01:55:32.463Z,1.13
2023-10-30T01:57:59.223Z,1.52
2023-10-30T02:00:26.216Z,1.23
2023-10-30T02:02:54.098Z,2.20
2023-10-30T02:05:20.847Z,2.07
2023-10-30T02:07:47.477Z,3.20
2023-10-30T02:10:14.428Z,3.88
2023-10-30T02:12:43.579Z,1.00
2023-10-30T02:15:10.400Z,1.15
2023-10-30T02:17:37.163Z,1.45
2023-10-30T02:20:04.097Z,3.65
2023-10-30T02:22:30.765Z,2.40
2023-10-30T02:24:58.332Z,3.33
2023-10-30T02:27:25.152Z,1.42
2023-10-30T02:29:51.883Z,1.40
2023-10-30T02:32:18.726Z,1.67
2023-10-30T02:34:45.325Z,2.08
2023-10-30T02:37:11.946Z,2.03
2023-10-30T02:39:38.753Z,1.15
2023-10-30T02:42:06.704Z,1.70
2023-10-30T02:44:33.428Z,1.20
2023-10-30T02:47:00.120Z,1.75
2023-10-30T02:49:27.028Z,2.22
2023-10-30T02:51:53.641Z,2.25
2023-10-30T02:54:20.420Z,5.95
2023-10-30T02:56:47.897Z,5.18
2023-10-30T02:59:14.519Z,1.48
2023-10-30T03:01:41.203Z,2.38
2023-10-30T03:04:08.218Z,1.05
2023-10-30T03:06:35.139Z,0.73
2023-10-30T03:09:02.048Z,1.73
2023-10-30T03:11:28.721Z,1.08
2023-10-30T03:13:55.380Z,0.88
2023-10-30T03:16:22.016Z,1.90
2023-10-30T03:18:48.725Z,1.77
2023-10-30T03:21:15.510Z,1.63
2023-10-30T03:23:42.201Z,1.17
2023-10-30T03:26:09.684Z,1.27
2023-10-30T03:28:36.445Z,11.90
2023-10-30T03:31:09.559Z,2.53
2023-10-30T03:33:37.087Z,1.00
2023-10-30T03:36:04.759Z,3.53
2023-10-30T03:38:31.468Z,6.32
2023-10-30T03:40:58.171Z,3.35
2023-10-30T03:43:24.816Z,6.18
2023-10-30T03:45:53.164Z,2.40
2023-10-30T03:48:19.880Z,2.05
2023-10-30T03:50:49.640Z,1.83
2023-10-30T03:53:16.266Z,1.88
2023-10-30T03:55:42.872Z,1.05
2023-10-30T03:58:09.487Z,1.08
2023-10-30T04:00:36.263Z,2.78
2023-10-30T04:03:02.998Z,1.15
2023-10-30T04:05:30.455Z,0.85
2023-10-30T04:07:57.226Z,1.10
2023-10-30T04:10:23.827Z,1.15
2023-10-30T04:12:50.582Z,1.58
2023-10-30T04:15:17.334Z,1.27
2023-10-30T04:17:43.991Z,3.30
2023-10-30T04:20:11.167Z,2.63
2023-10-30T04:22:37.889Z,5.43
2023-10-30T04:25:06.003Z,1.02
2023-10-30T04:29:59.502Z,2.10
2023-10-30T04:32:26.194Z,13.15
2023-10-30T04:34:52.783Z,11.35
2023-10-30T04:37:19.445Z,7.65
2023-10-30T04:39:46.474Z,11.75
2023-10-30T04:42:13.503Z,3.90
2023-10-30T04:44:40.172Z,4.05
2023-10-30T04:47:07.116Z,3.80
2023-10-30T04:49:33.716Z,2.10
2023-10-30T04:52:00.345Z,4.75
2023-10-30T04:54:27.211Z,5.20
2023-10-30T04:56:53.839Z,1.98
2023-10-30T04:59:20.634Z,4.35
2023-10-30T05:01:47.259Z,4.18
2023-10-30T05:04:13.982Z,8.68
2023-10-30T05:06:40.652Z,18.98
2023-10-30T05:09:07.268Z,10.60
2023-10-30T05:11:38.514Z,10.98
2023-10-30T05:14:05.918Z,18.10
2023-10-30T05:16:32.695Z,37.57
2023-10-30T05:18:59.479Z,54.55
2023-10-30T05:21:29.045Z,51.65
2023-10-30T05:23:55.806Z,21.60
2023-10-30T05:26:22.578Z,11.80
2023-10-30T05:28:49.282Z,7.65
2023-10-30T05:31:16.257Z,7.43
2023-10-30T05:33:43.124Z,5.05
2023-10-30T05:36:10.658Z,5.53
2023-10-30T05:38:37.370Z,6.53
2023-10-30T05:41:04.267Z,3.88
2023-10-30T05:43:30.923Z,2.55
2023-10-30T05:45:57.642Z,3.33
2023-10-30T05:48:24.499Z,2.90
2023-10-30T05:50:51.245Z,2.55
2023-10-30T05:53:18.158Z,2.58
2023-10-30T05:55:44.812Z,3.08
2023-10-30T05:58:11.530Z,1.95
2023-10-30T06:00:38.335Z,3.05
2023-10-30T06:03:05.048Z,2.17
2023-10-30T06:05:31.719Z,2.50
2023-10-30T06:07:58.358Z,2.00
2023-10-30T06:10:25.174Z,1.80
2023-10-30T06:12:51.950Z,3.97
2023-10-30T06:15:19.071Z,1.95
2023-10-30T06:17:45.761Z,4.05
2023-10-30T06:20:12.534Z,3.70
2023-10-30T06:22:39.180Z,5.55
2023-10-30T06:25:06.363Z,2.97
2023-10-30T06:27:33.425Z,0.80
2023-10-30T06:30:02.453Z,4.53
2023-10-30T06:32:29.065Z,4.30
2023-10-30T06:34:55.697Z,1.90
2023-10-30T06:37:22.392Z,1.83
2023-10-30T06:39:49.272Z,3.15
2023-10-30T06:42:15.936Z,2.53
2023-10-30T06:44:42.663Z,5.20
2023-10-30T06:47:09.283Z,2.03
2023-10-30T06:49:35.960Z,2.35
2023-10-30T06:52:02.588Z,8.73
2023-10-30T06:54:29.207Z,2.05
2023-10-30T06:56:55.818Z,3.25
2023-10-30T06:59:22.508Z,3.25
2023-10-30T07:01:49.149Z,2.85
2023-10-30T07:04:16.858Z,2.00
2023-10-30T07:06:44.952Z,1.70
2023-10-30T07:11:39.922Z,4.87
2023-10-30T07:14:06.974Z,2.17
2023-10-30T07:16:36.959Z,1.63
2023-10-30T07:19:07.786Z,1.35
2023-10-30T07:21:34.511Z,4.88
2023-10-30T07:24:01.344Z,1.90
2023-10-30T07:26:27.985Z,1.92
2023-10-30T07:28:54.667Z,1.50
2023-10-30T07:31:21.355Z,1.85
2023-10-30T07:33:48.753Z,3.15
2023-10-30T07:36:15.460Z,2.25
2023-10-30T07:38:42.098Z,2.58
2023-10-30T07:41:08.736Z,2.10
2023-10-30T07:43:35.647Z,2.92
2023-10-30T07:46:02.632Z,3.67
2023-10-30T07:48:29.520Z,1.85
2023-10-30T07:50:56.269Z,2.45
2023-10-30T07:53:22.847Z,5.70
2023-10-30T07:55:49.547Z,4.15
2023-10-30T07:58:16.172Z,2.60
2023-10-30T08:00:57.207Z,4.40
2023-10-30T08:03:24.961Z,4.43
2023-10-30T08:05:51.899Z,3.90
2023-10-30T08:08:18.564Z,4.07
2023-10-30T08:10:46.928Z,4.95
2023-10-30T08:13:13.727Z,4.20
2023-10-30T08:15:40.598Z,6.57
2023-10-30T08:18:07.264Z,4.72
2023-10-30T08:20:34.038Z,3.35
2023-10-30T08:23:00.893Z,4.88
2023-10-30T08:25:27.666Z,3.78
2023-10-30T08:27:54.440Z,3.55
2023-10-30T08:30:21.172Z,4.60
2023-10-30T08:32:47.919Z,2.33
2023-10-30T08:35:14.737Z,4.63
2023-10-30T08:37:41.438Z,4.95
2023-10-30T08:40:08.673Z,2.90
2023-10-30T08:42:35.474Z,7.88
2023-10-30T08:45:02.603Z,5.07
2023-10-30T08:47:29.300Z,4.75
2023-10-30T08:49:56.072Z,3.75
2023-10-30T08:52:22.839Z,5.53
2023-10-30T08:54:49.527Z,3.15
2023-10-30T08:57:17.940Z,4.15
2023-10-30T08:59:44.803Z,4.28
2023-10-30T09:02:11.596Z,8.13
2023-10-30T09:04:38.441Z,6.20
2023-10-30T09:07:05.464Z,3.35
2023-10-30T09:09:32.215Z,3.63
2023-10-30T09:11:58.844Z,3.53
2023-10-30T09:14:26.702Z,24.77
2023-10-30T09:16:53.959Z,1.73
2023-10-30T09:19:20.698Z,2.55
2023-10-30T09:21:47.615Z,4.05
2023-10-30T09:24:14.374Z,2.20
2023-10-30T09:26:41.105Z,7.45
2023-10-30T09:29:08.056Z,2.75
2023-10-30T09:31:34.809Z,1.73
2023-10-30T09:34:01.835Z,2.17
2023-10-30T09:36:28.639Z,6.03
2023-10-30T09:38:55.467Z,2.40
2023-10-30T09:41:22.610Z,2.55
2023-10-30T09:43:49.973Z,4.90
2023-10-30T09:46:16.862Z,2.73
2023-10-30T09:48:49.658Z,1.77
2023-10-30T09:51:17.525Z,7.00
2023-10-30T09:53:45.586Z,8.57
2023-10-30T09:56:14.329Z,2.75
2023-10-30T09:58:41.169Z,4.53
2023-10-30T10:01:07.945Z,2.72
2023-10-30T10:03:34.832Z,2.65
2023-10-30T10:06:02.019Z,4.13
2023-10-30T10:08:28.829Z,1.98
2023-10-30T10:11:00.654Z,1.80
2023-10-30T10:13:32.139Z,2.72
2023-10-30T10:15:58.862Z,2.97
2023-10-30T10:18:36.780Z,1.60
2023-10-30T10:23:35.026Z,2.55
2023-10-30T10:26:07.133Z,1.42
2023-10-30T10:28:34.573Z,4.93
2023-10-30T10:31:01.596Z,2.00
2023-10-30T10:33:28.877Z,1.88
2023-10-30T10:35:56.940Z,3.15
2023-10-30T10:38:23.826Z,1.48
2023-10-30T10:40:53.894Z,3.40
2023-10-30T10:43:21.798Z,2.47
2023-10-30T10:45:53.404Z,4.45
2023-10-30T10:48:21.300Z,6.22
2023-10-30T10:50:48.805Z,1.25
2023-10-30T10:53:19.713Z,1.35
2023-10-30T10:55:50.538Z,1.98
2023-10-30T10:58:27.893Z,1.60
2023-10-30T11:00:54.781Z,4.32
2023-10-30T11:03:22.643Z,1.75
2023-10-30T11:05:52.127Z,1.70
2023-10-30T11:08:40.199Z,1.52
2023-10-30T11:11:18.948Z,2.45
2023-10-30T11:14:01.617Z,2.53
2023-10-30T11:16:31.886Z,6.47
2023-10-30T11:18:59.473Z,3.45
2023-10-30T11:21:27.679Z,4.40
2023-10-30T11:24:01.457Z,5.97
2023-10-30T11:26:35.038Z,7.35
2023-10-30T11:29:01.808Z,6.78
2023-10-30T11:31:31.900Z,2.83
2023-10-30T11:34:12.967Z,2.88
2023-10-30T11:36:40.166Z,1.17
2023-10-30T11:39:06.810Z,1.37
2023-10-30T11:41:37.232Z,7.78
2023-10-30T11:44:14.466Z,1.65
2023-10-30T11:46:42.756Z,1.90
2023-10-30T11:49:12.205Z,2.10
2023-10-30T11:51:42.093Z,1.27
2023-10-30T11:54:08.920Z,5.97
2023-10-30T11:56:35.762Z,1.95
2023-10-30T11:59:04.294Z,2.50
2023-10-30T12:01:34.464Z,1.80
2023-10-30T12:04:03.534Z,5.13
2023-10-30T12:06:32.092Z,4.63
2023-10-30T12:08:58.812Z,1.98
2023-10-30T12:11:25.511Z,1.45
2023-10-30T12:13:52.993Z,2.70
2023-10-30T12:16:19.702Z,2.25
2023-10-30T12:18:46.592Z,2.40
2023-10-30T12:21:14.071Z,5.50
2023-10-30T12:23:50.515Z,3.15
2023-10-30T12:26:17.205Z,3.70
2023-10-30T12:28:43.881Z,4.22
2023-10-30T12:31:24.092Z,3.15
2023-10-30T12:34:14.473Z,1.95
2023-10-30T12:36:41.472Z,1.40
2023-10-30T12:39:12.729Z,5.55
2023-10-30T12:41:39.471Z,3.97
2023-10-30T12:44:06.108Z,2.88
2023-10-30T12:46:32.799Z,3.85
2023-10-30T12:48:59.582Z,2.10
2023-10-30T12:51:26.452Z,3.30
2023-10-30T12:53:53.201Z,6.13
2023-10-30T12:56:19.840Z,2.42
2023-10-30T12:58:46.472Z,2.53
2023-10-30T13:01:13.163Z,2.97
2023-10-30T13:03:39.935Z,3.50
2023-10-30T13:06:06.761Z,4.80
2023-10-30T13:08:33.444Z,1.88
2023-10-30T13:11:00.056Z,3.80
2023-10-30T13:13:26.831Z,3.00
2023-10-30T13:15:53.550Z,2.05
2023-10-30T13:18:20.204Z,2.67
2023-10-30T13:20:46.862Z,2.58
2023-10-30T13:23:13.603Z,6.20
2023-10-30T13:25:41.183Z,2.42
2023-10-30T13:28:07.844Z,3.75
2023-10-30T13:30:34.629Z,4.60
2023-10-30T13:33:01.365Z,1.73
2023-10-30T13:35:28.087Z,3.20
2023-10-30T13:37:54.784Z,4.43
2023-10-30T13:40:21.382Z,1.73
2023-10-30T13:42:48.092Z,2.58
2023-10-30T13:45:14.853Z,2.00
2023-10-30T13:47:41.591Z,4.90
2023-10-30T13:50:08.533Z,1.95
2023-10-30T13:52:35.214Z,1.83
2023-10-30T13:55:02.156Z,4.65
2023-10-30T13:57:28.936Z,4.68
2023-10-30T13:59:55.553Z,4.82
2023-10-30T14:02:22.222Z,4.53
2023-10-30T14:04:50.733Z,7.22
2023-10-30T14:07:20.643Z,7.15
2023-10-30T14:09:47.912Z,4.10
2023-10-30T14:12:14.817Z,5.47
2023-10-30T14:14:41.437Z,6.45
2023-10-30T14:17:08.204Z,5.07
2023-10-30T14:19:34.847Z,5.25
2023-10-30T14:22:01.520Z,5.35
2023-10-30T14:24:28.272Z,5.78
2023-10-30T14:26:54.964Z,5.47
2023-10-30T14:29:21.690Z,6.15
2023-10-30T14:31:48.410Z,5.60
2023-10-30T14:34:15.222Z,7.90
2023-10-30T14:36:42.116Z,9.65
2023-10-30T14:39:08.819Z,12.02
2023-10-30T14:41:35.429Z,13.00
2023-10-30T14:44:02.188Z,11.60
2023-10-30T14:46:28.952Z,7.07
2023-10-30T14:48:55.825Z,6.80
2023-10-30T14:51:22.560Z,5.82
2023-10-30T14:53:49.377Z,4.13
2023-10-30T14:56:16.664Z,6.65
2023-10-30T14:58:43.444Z,2.75
2023-10-30T15:01:10.434Z,3.78
2023-10-30T15:03:37.281Z,4.47
2023-10-30T15:06:04.831Z,1.98
2023-10-30T15:08:31.679Z,6.25
2023-10-30T15:10:58.263Z,3.15
2023-10-30T15:13:24.938Z,3.33
2023-10-30T15:15:51.898Z,3.10
2023-10-30T15:18:18.705Z,2.85
2023-10-30T15:20:45.346Z,1.00
2023-10-30T15:23:12.046Z,1.55
2023-10-30T15:25:38.741Z,1.98
2023-10-30T15:28:05.474Z,3.42
2023-10-30T15:30:32.255Z,1.65
2023-10-30T15:32:58.961Z,5.18
2023-10-30T15:35:26.019Z,3.13
2023-10-30T15:37:52.703Z,6.55
2023-10-30T15:40:19.377Z,9.38
2023-10-30T15:42:46.260Z,5.30
2023-10-30T15:45:13.461Z,8.18
2023-10-30T15:47:40.536Z,11.68
2023-10-30T15:50:09.126Z,6.28
2023-10-30T15:58:08.869Z,13.18
2023-10-30T16:00:35.511Z,13.95
2023-10-30T16:05:47.132Z,6.95
2023-10-30T16:10:47.973Z,3.97
2023-10-30T16:13:40.728Z,3.08
2023-10-30T16:16:01.315Z,2.10
2023-10-30T16:18:28.217Z,5.75
2023-10-30T16:21:15.276Z,3.55
2023-10-30T16:23:41.600Z,3.30
2023-10-30T16:26:08.211Z,6.07
2023-10-30T16:28:34.927Z,7.10
2023-10-30T16:31:01.593Z,6.30
2023-10-30T16:33:28.272Z,6.70
2023-10-30T16:36:02.700Z,5.68
2023-10-30T16:38:29.624Z,3.42
2023-10-30T16:40:56.372Z,4.93
2023-10-30T16:43:23.081Z,3.05
2023-10-30T16:45:49.759Z,4.47
2023-10-30T16:48:16.353Z,3.47
2023-10-30T16:50:43.030Z,4.85
2023-10-30T16:53:09.833Z,5.47
2023-10-30T16:55:36.573Z,3.60
2023-10-30T16:58:03.264Z,5.28
2023-10-30T17:00:29.890Z,5.40
2023-10-30T17:02:56.592Z,6.50
2023-10-30T17:05:23.297Z,4.55
2023-10-30T17:07:49.904Z,4.75
2023-10-30T17:10:16.639Z,5.40
2023-10-30T17:12:43.305Z,8.98
2023-10-30T17:15:10.141Z,4.20
2023-10-30T17:17:36.960Z,4.22
2023-10-30T17:20:04.088Z,5.20
2023-10-30T17:22:31.156Z,5.45
2023-10-30T17:24:57.901Z,4.82
2023-10-30T17:27:24.524Z,7.05
2023-10-30T17:29:51.316Z,3.30
2023-10-30T17:32:18.165Z,5.38
2023-10-30T17:34:45.119Z,4.38
2023-10-30T17:37:11.796Z,5.70
2023-10-30T17:39:38.397Z,5.18
2023-10-30T17:42:05.539Z,6.28
2023-10-30T17:44:32.168Z,6.57
2023-10-30T17:46:58.902Z,1.70
2023-10-30T17:49:25.657Z,4.45
2023-10-30T17:51:52.342Z,2.00
2023-10-30T17:54:19.081Z,4.97
2023-10-30T17:56:45.714Z,4.40
2023-10-30T17:59:12.333Z,3.75
2023-10-30T18:01:39.010Z,4.32
2023-10-30T18:04:06.064Z,4.47
2023-10-30T18:06:32.824Z,5.60
2023-10-30T18:08:59.491Z,7.35
2023-10-30T18:11:26.087Z,11.43
2023-10-30T18:13:52.714Z,4.93
2023-10-30T18:16:19.535Z,4.07
2023-10-30T18:18:46.213Z,6.40
2023-10-30T18:21:12.954Z,2.85
2023-10-30T18:23:41.342Z,3.33
2023-10-30T18:26:09.281Z,5.47
2023-10-30T18:28:35.966Z,2.70
2023-10-30T18:31:02.677Z,4.13
2023-10-30T18:33:29.382Z,2.50
2023-10-30T18:35:56.084Z,3.70
2023-10-30T18:38:22.733Z,3.83
2023-10-30T18:40:49.447Z,6.80
2023-10-30T18:43:16.378Z,5.47
2023-10-30T18:45:43.718Z,9.98
2023-10-30T18:48:10.402Z,8.13
2023-10-30T18:50:37.076Z,7.25
2023-10-30T18:53:03.753Z,3.30
2023-10-30T18:55:30.393Z,3.22
2023-10-30T18:57:57.082Z,3.03
2023-10-30T19:00:23.969Z,3.80
2023-10-30T19:02:50.727Z,6.75
2023-10-30T19:05:17.726Z,6.97
2023-10-30T19:07:44.704Z,8.15
2023-10-30T19:10:11.525Z,4.43
2023-10-30T19:12:38.547Z,3.83
2023-10-30T19:15:05.562Z,1.30
2023-10-30T19:17:32.325Z,1.85
2023-10-30T19:19:58.984Z,1.33
2023-10-30T19:22:25.695Z,5.15
2023-10-30T19:24:52.331Z,1.77
2023-10-30T19:27:18.966Z,1.98
2023-10-30T19:29:45.568Z,2.30
2023-10-30T19:32:12.371Z,2.10
2023-10-30T19:34:39.154Z,1.85
2023-10-30T19:37:05.776Z,5.22
2023-10-30T19:39:32.389Z,1.58
2023-10-30T19:41:59.072Z,1.55
2023-10-30T19:44:26.596Z,1.88
2023-10-30T19:46:53.338Z,2.13
2023-10-30T19:49:20.014Z,1.90
2023-10-30T19:51:52.841Z,2.55
2023-10-30T19:54:25.512Z,2.20
2023-10-30T19:56:52.575Z,1.00
2023-10-30T19:59:19.202Z,2.25
2023-10-30T20:01:45.917Z,0.70
2023-10-30T20:04:12.644Z,1.25
2023-10-30T20:06:39.278Z,1.35
2023-10-30T20:09:06.003Z,0.77
2023-10-30T20:11:34.284Z,1.27
2023-10-30T20:14:00.937Z,1.90
2023-10-30T20:16:27.772Z,0.93
2023-10-30T20:18:55.508Z,2.03
2023-10-30T20:21:22.099Z,1.15
2023-10-30T20:23:48.735Z,0.68
2023-10-30T20:26:15.420Z,1.65
2023-10-30T20:28:42.074Z,1.20
2023-10-30T20:31:08.714Z,2.30
2023-10-30T20:33:35.428Z,1.73
2023-10-30T20:36:02.071Z,1.65
2023-10-30T20:38:28.705Z,3.38
2023-10-30T20:40:55.381Z,3.15
2023-10-30T20:43:22.072Z,3.17
2023-10-30T20:45:48.717Z,2.33
2023-10-30T20:48:15.514Z,2.75
2023-10-30T20:50:42.277Z,8.77
2023-10-30T20:53:09.090Z,5.95
2023-10-30T20:55:35.739Z,6.05
2023-10-30T20:58:02.520Z,7.18
2023-10-30T21:00:29.160Z,6.13
2023-10-30T21:02:55.815Z,7.65
2023-10-30T21:05:22.604Z,3.95
2023-10-30T21:07:49.320Z,7.25
2023-10-30T21:10:16.065Z,4.78
2023-10-30T21:12:42.692Z,6.57
2023-10-30T21:15:09.771Z,6.80
2023-10-30T21:17:36.438Z,7.78
2023-10-30T21:20:03.303Z,7.53
2023-10-30T21:22:29.927Z,9.38
2023-10-30T21:24:56.594Z,7.43
2023-10-30T21:27:23.238Z,7.13
2023-10-30T21:29:50.158Z,6.32
2023-10-30T21:32:16.852Z,6.40
2023-10-30T21:34:43.483Z,6.10
2023-10-30T21:37:10.087Z,7.72
2023-10-30T21:39:36.691Z,4.70
2023-10-30T21:42:03.477Z,5.38
2023-10-30T21:44:30.188Z,8.48
2023-10-30T21:46:56.869Z,9.10
2023-10-30T21:49:24.604Z,5.53
2023-10-30T21:51:51.238Z,6.10
2023-10-30T21:54:17.889Z,7.00
2023-10-30T21:56:44.661Z,8.18
2023-10-30T21:59:11.458Z,6.22
2023-10-30T22:01:38.136Z,5.97
2023-10-30T22:04:05.221Z,7.30
2023-10-30T22:06:31.972Z,6.05
2023-10-30T22:08:58.612Z,5.60
2023-10-30T22:11:25.384Z,5.22
2023-10-30T22:13:52.191Z,7.25
2023-10-30T22:16:19.216Z,5.18
2023-10-30T22:18:45.984Z,5.22
2023-10-30T22:21:12.680Z,6.97
2023-10-30T22:23:39.368Z,8.00
2023-10-30T22:26:06.122Z,5.18
2023-10-30T22:28:32.746Z,6.40
2023-10-30T22:30:59.368Z,5.63
2023-10-30T22:33:26.108Z,4.90
2023-10-30T22:35:52.772Z,4.47
2023-10-30T22:38:19.421Z,4.30
2023-10-30T22:40:46.351Z,5.53
2023-10-30T22:43:12.974Z,5.68
2023-10-30T22:45:39.740Z,5.40
2023-10-30T22:48:06.537Z,5.38
2023-10-30T22:50:33.154Z,6.05
2023-10-30T22:52:59.983Z,4.32
2023-10-30T22:55:26.972Z,5.43
2023-10-30T22:57:54.631Z,4.43
2023-10-30T23:00:22.404Z,7.40
2023-10-30T23:02:49.217Z,4.28
2023-10-30T23:05:16.033Z,5.72
2023-10-30T23:07:42.868Z,3.95
2023-10-30T23:10:09.730Z,4.95
2023-10-30T23:12:36.648Z,4.82
2023-10-30T23:15:03.742Z,4.20
2023-10-30T23:17:31.044Z,2.63
2023-10-30T23:19:57.960Z,4.50
2023-10-30T23:22:24.650Z,2.25
2023-10-30T23:24:52.106Z,3.72
2023-10-30T23:27:18.760Z,4.25
2023-10-30T23:29:45.426Z,7.15
2023-10-30T23:32:12.058Z,1.40
2023-10-30T23:34:38.703Z,3.78
2023-10-30T23:37:05.561Z,3.30
2023-10-30T23:39:32.232Z,1.77
2023-10-30T23:41:58.892Z,1.65
2023-10-30T23:44:25.749Z,1.02
2023-10-30T23:46:52.485Z,2.50
2023-10-30T23:49:19.288Z,3.10
2023-10-30T23:51:45.945Z,2.13
2023-10-30T23:54:12.556Z,0.80
2023-10-30T23:56:39.253Z,0.68
2023-10-30T23:59:06.036Z,0.63
